PWSweather.com
Personal Weather Stations
Station Observations
SHAHALMS1
Eftra, Falkenberg, HA

EftraFalkenberg, HA

Lat: 56.85, Lon: 12.65

Elevation: 140

Station Type:

http://hem.passagen.se/risarp101

High Low Average
Temperature 67.8°F19.9°C 54.5°F12.5°C 61.0°F16.1°C
Dew Point 56.5°F13.6°C 49.3°F9.6°C 53.0°F11.7°C
Winds 9.4 mph 15.1 kmh 0.9 mph 1.4 kmh 4.0 mph SSE6.4 kmh SSE
Wind Gusts 30.8 mph49.6 kmh 5.4 mph8.7 kmh 12.0 mph19.3 kmh
Humidity 87% 54% 76%
Pressure 30.07 in1018.3 mb 29.95 in1014.2 mb -
Precipitation 0.06 in1.5 mm - -
Hour Temp Dew Point Humidity Winds Wind Gusts Pressure Precip Precip Rate Daily Precip Total
12:00 AM 57.2°F14.0°C 50.7°F10.4°C 79% 1.3 mph SE2.1 kmh SE 6.8 mph10.9 kmh 29.95 in1014.2 mb 0.00 in0.0 mm 0.00 in0.0 mm 0.00 in0.0 mm
12:15 AM 57.0°F13.9°C 50.9°F10.5°C 80% 1.9 mph SSE3.1 kmh SSE 6.8 mph10.9 kmh 29.95 in1014.2 mb 0.00 in0.0 mm 0.00 in0.0 mm 0.00 in0.0 mm
12:30 AM 56.5°F13.6°C 50.4°F10.2°C 80% 5.0 mph ESE8.0 kmh ESE 11.1 mph17.9 kmh 29.95 in1014.2 mb 0.00 in0.0 mm 0.00 in0.0 mm 0.00 in0.0 mm
12:45 AM 55.6°F13.1°C 49.5°F9.7°C 80% 2.8 mph ESE4.5 kmh ESE 9.7 mph15.6 kmh 29.98 in1015.2 mb 0.00 in0.0 mm 0.00 in0.0 mm 0.00 in0.0 mm
01:00 AM 55.2°F12.9°C 49.5°F9.7°C 81% 1.4 mph E2.3 kmh E 5.7 mph9.2 kmh 29.95 in1014.2 mb 0.00 in0.0 mm 0.00 in0.0 mm 0.00 in0.0 mm
01:15 AM 54.7°F12.6°C 49.3°F9.6°C 82% 5.3 mph E8.5 kmh E 10.4 mph16.7 kmh 29.95 in1014.2 mb 0.00 in0.0 mm 0.00 in0.0 mm 0.00 in0.0 mm
01:30 AM 54.5°F12.5°C 49.4°F9.7°C 83% 1.6 mph ESE2.6 kmh ESE 6.4 mph10.3 kmh 29.95 in1014.2 mb 0.00 in0.0 mm 0.00 in0.0 mm 0.00 in0.0 mm
01:45 AM 54.7°F12.6°C 49.9°F9.9°C 84% 2.7 mph SE4.3 kmh SE 9.7 mph15.6 kmh 29.95 in1014.2 mb 0.00 in0.0 mm 0.00 in0.0 mm 0.00 in0.0 mm
02:00 AM 55.0°F12.8°C 50.6°F10.3°C 85% 1.7 mph SE2.7 kmh SE 8.6 mph13.8 kmh 29.98 in1015.2 mb 0.00 in0.0 mm 0.00 in0.0 mm 0.00 in0.0 mm
02:15 AM 55.4°F13.0°C 51.0°F10.6°C 85% 3.2 mph SE5.1 kmh SE 8.9 mph14.3 kmh 29.98 in1015.2 mb 0.00 in0.0 mm 0.00 in0.0 mm 0.00 in0.0 mm
02:30 AM 55.4°F13.0°C 51.0°F10.6°C 85% 2.4 mph ESE3.9 kmh ESE 10.4 mph16.7 kmh 29.98 in1015.2 mb 0.00 in0.0 mm 0.00 in0.0 mm 0.00 in0.0 mm
02:45 AM 55.4°F13.0°C 51.0°F10.6°C 85% 3.7 mph SE6.0 kmh SE 9.7 mph15.6 kmh 29.98 in1015.2 mb 0.00 in0.0 mm 0.00 in0.0 mm 0.00 in0.0 mm
03:00 AM 55.6°F13.1°C 51.1°F10.6°C 85% 3.0 mph SE4.8 kmh SE 11.5 mph18.5 kmh 30.01 in1016.3 mb 0.00 in0.0 mm 0.00 in0.0 mm 0.00 in0.0 mm
03:15 AM 55.8°F13.2°C 51.3°F10.7°C 85% 3.3 mph SE5.3 kmh SE 9.3 mph15.0 kmh 29.98 in1015.2 mb 0.00 in0.0 mm 0.00 in0.0 mm 0.00 in0.0 mm
03:30 AM 55.8°F13.2°C 51.3°F10.7°C 85% 2.6 mph ESE4.2 kmh ESE 8.6 mph13.8 kmh 30.01 in1016.3 mb 0.00 in0.0 mm 0.00 in0.0 mm 0.00 in0.0 mm
03:45 AM 55.9°F13.3°C 51.8°F11.0°C 86% 3.4 mph SE5.5 kmh SE 11.8 mph19.0 kmh 30.01 in1016.3 mb 0.00 in0.0 mm 0.00 in0.0 mm 0.00 in0.0 mm
04:00 AM 55.8°F13.2°C 51.3°F10.7°C 85% 4.8 mph E7.7 kmh E 9.7 mph15.6 kmh 29.98 in1015.2 mb 0.00 in0.0 mm 0.00 in0.0 mm 0.00 in0.0 mm
04:15 AM 55.4°F13.0°C 51.0°F10.6°C 85% 5.0 mph E8.0 kmh E 10.0 mph16.1 kmh 30.01 in1016.3 mb 0.00 in0.0 mm 0.00 in0.0 mm 0.00 in0.0 mm
04:30 AM 55.2°F12.9°C 51.1°F10.6°C 86% 3.3 mph E5.3 kmh E 7.9 mph12.7 kmh 29.98 in1015.2 mb 0.00 in0.0 mm 0.00 in0.0 mm 0.00 in0.0 mm
04:45 AM 55.4°F13.0°C 51.6°F10.9°C 87% 4.8 mph ESE7.7 kmh ESE 10.4 mph16.7 kmh 29.98 in1015.2 mb 0.00 in0.0 mm 0.00 in0.0 mm 0.00 in0.0 mm
05:00 AM 55.6°F13.1°C 51.8°F11.0°C 87% 1.7 mph ESE2.7 kmh ESE 8.9 mph14.3 kmh 29.98 in1015.2 mb 0.00 in0.0 mm 0.00 in0.0 mm 0.00 in0.0 mm
05:15 AM 55.8°F13.2°C 51.9°F11.1°C 87% 3.2 mph SE5.1 kmh SE 12.2 mph19.6 kmh 29.95 in1014.2 mb 0.00 in0.0 mm 0.00 in0.0 mm 0.00 in0.0 mm
05:30 AM 56.3°F13.5°C 52.5°F11.4°C 87% 4.4 mph SE7.1 kmh SE 11.8 mph19.0 kmh 29.98 in1015.2 mb 0.00 in0.0 mm 0.00 in0.0 mm 0.00 in0.0 mm
05:45 AM 56.7°F13.7°C 52.8°F11.6°C 87% 1.9 mph SSE3.1 kmh SSE 9.3 mph15.0 kmh 29.98 in1015.2 mb 0.00 in0.0 mm 0.00 in0.0 mm 0.00 in0.0 mm
06:00 AM 56.8°F13.8°C 53.0°F11.7°C 87% 2.8 mph SE4.5 kmh SE 12.2 mph19.6 kmh 29.98 in1015.2 mb 0.00 in0.0 mm 0.00 in0.0 mm 0.00 in0.0 mm
06:15 AM 57.2°F14.0°C 53.4°F11.9°C 87% 3.4 mph E5.5 kmh E 10.7 mph17.2 kmh 29.98 in1015.2 mb 0.06 in1.5 mm 0.24 in6.1 mm 0.06 in1.5 mm
06:30 AM 57.6°F14.2°C 53.7°F12.1°C 87% 2.6 mph ESE4.2 kmh ESE 9.3 mph15.0 kmh 29.98 in1015.2 mb 0.06 in1.5 mm 0.00 in0.0 mm 0.06 in1.5 mm
06:45 AM 57.9°F14.4°C 53.8°F12.1°C 86% 2.1 mph SE3.4 kmh SE 9.3 mph15.0 kmh 29.98 in1015.2 mb 0.06 in1.5 mm 0.00 in0.0 mm 0.06 in1.5 mm
07:00 AM 58.3°F14.6°C 54.1°F12.3°C 86% 1.2 mph SE1.9 kmh SE 7.9 mph12.7 kmh 29.98 in1015.2 mb 0.06 in1.5 mm 0.00 in0.0 mm 0.06 in1.5 mm
07:15 AM 58.8°F14.9°C 54.3°F12.4°C 85% 3.3 mph S5.3 kmh S 8.9 mph14.3 kmh 29.95 in1014.2 mb 0.00 in0.0 mm 0.00 in0.0 mm 0.06 in1.5 mm
07:30 AM 59.7°F15.4°C 54.9°F12.7°C 84% 4.8 mph SE7.7 kmh SE 12.9 mph20.8 kmh 29.95 in1014.2 mb 0.00 in0.0 mm 0.00 in0.0 mm 0.06 in1.5 mm
07:45 AM 61.3°F16.3°C 56.5°F13.6°C 84% 3.5 mph SE5.6 kmh SE 8.9 mph14.3 kmh 29.95 in1014.2 mb 0.00 in0.0 mm 0.00 in0.0 mm 0.06 in1.5 mm
08:00 AM 62.1°F16.7°C 55.5°F13.1°C 79% 4.5 mph S7.2 kmh S 14.7 mph23.7 kmh 29.95 in1014.2 mb 0.00 in0.0 mm 0.00 in0.0 mm 0.06 in1.5 mm
08:15 AM 61.7°F16.5°C 54.1°F12.3°C 76% 7.6 mph S12.2 kmh S 17.2 mph27.7 kmh 29.95 in1014.2 mb 0.00 in0.0 mm 0.00 in0.0 mm 0.06 in1.5 mm
08:30 AM 61.5°F16.4°C 53.9°F12.2°C 76% 5.7 mph S9.2 kmh S 15.7 mph25.3 kmh 29.98 in1015.2 mb 0.00 in0.0 mm 0.00 in0.0 mm 0.06 in1.5 mm
08:45 AM 61.3°F16.3°C 53.3°F11.8°C 75% 6.8 mph S10.9 kmh S 13.6 mph21.9 kmh 29.98 in1015.2 mb 0.00 in0.0 mm 0.00 in0.0 mm 0.06 in1.5 mm
09:00 AM 61.3°F16.3°C 53.7°F12.1°C 76% 5.6 mph S9.0 kmh S 19.3 mph31.1 kmh 29.98 in1015.2 mb 0.00 in0.0 mm 0.00 in0.0 mm 0.06 in1.5 mm
09:15 AM 62.2°F16.8°C 54.2°F12.3°C 75% 8.1 mph S13.0 kmh S 19.3 mph31.1 kmh 29.98 in1015.2 mb 0.00 in0.0 mm 0.00 in0.0 mm 0.06 in1.5 mm
09:30 AM 64.2°F17.9°C 55.4°F13.0°C 73% 7.2 mph S11.6 kmh S 21.1 mph34.0 kmh 29.98 in1015.2 mb 0.00 in0.0 mm 0.00 in0.0 mm 0.06 in1.5 mm
09:45 AM 64.6°F18.1°C 54.2°F12.3°C 69% 7.7 mph S12.4 kmh S 19.3 mph31.1 kmh 29.98 in1015.2 mb 0.00 in0.0 mm 0.00 in0.0 mm 0.06 in1.5 mm
10:00 AM 64.8°F18.2°C 53.9°F12.2°C 68% 6.4 mph S10.3 kmh S 14.0 mph22.5 kmh 30.01 in1016.3 mb 0.00 in0.0 mm 0.00 in0.0 mm 0.06 in1.5 mm
10:15 AM 64.8°F18.2°C 52.7°F11.5°C 65% 7.8 mph S12.6 kmh S 17.5 mph28.2 kmh 30.01 in1016.3 mb 0.00 in0.0 mm 0.00 in0.0 mm 0.06 in1.5 mm
10:30 AM 65.1°F18.4°C 52.6°F11.4°C 64% 6.3 mph S10.1 kmh S 14.0 mph22.5 kmh 30.01 in1016.3 mb 0.00 in0.0 mm 0.00 in0.0 mm 0.06 in1.5 mm
10:45 AM 65.3°F18.5°C 52.4°F11.3°C 63% 7.7 mph S12.4 kmh S 15.7 mph25.3 kmh 30.01 in1016.3 mb 0.00 in0.0 mm 0.00 in0.0 mm 0.06 in1.5 mm
11:00 AM 66.4°F19.1°C 53.0°F11.7°C 62% 5.6 mph S9.0 kmh S 13.6 mph21.9 kmh 30.01 in1016.3 mb 0.00 in0.0 mm 0.00 in0.0 mm 0.06 in1.5 mm
11:15 AM 66.4°F19.1°C 52.1°F11.2°C 60% 7.2 mph S11.6 kmh S 17.2 mph27.7 kmh 30.01 in1016.3 mb 0.00 in0.0 mm 0.00 in0.0 mm 0.06 in1.5 mm
11:30 AM 66.9°F19.4°C 52.1°F11.2°C 59% 8.2 mph S13.2 kmh S 21.1 mph34.0 kmh 30.01 in1016.3 mb 0.00 in0.0 mm 0.00 in0.0 mm 0.06 in1.5 mm
11:45 AM 67.1°F19.5°C 52.3°F11.3°C 59% 9.0 mph S14.5 kmh S 30.8 mph49.6 kmh 30.01 in1016.3 mb 0.00 in0.0 mm 0.00 in0.0 mm 0.06 in1.5 mm
12:00 PM 67.3°F19.6°C 50.6°F10.3°C 55% 9.4 mph S15.1 kmh S 19.7 mph31.7 kmh 30.04 in1017.3 mb 0.00 in0.0 mm 0.00 in0.0 mm 0.06 in1.5 mm
12:15 PM 67.8°F19.9°C 51.1°F10.6°C 55% 7.2 mph S11.6 kmh S 22.5 mph36.2 kmh 30.04 in1017.3 mb 0.00 in0.0 mm 0.00 in0.0 mm 0.06 in1.5 mm
12:30 PM 67.3°F19.6°C 50.1°F10.1°C 54% 7.6 mph S12.2 kmh S 17.5 mph28.2 kmh 30.04 in1017.3 mb 0.00 in0.0 mm 0.00 in0.0 mm 0.06 in1.5 mm
12:45 PM 67.3°F19.6°C 50.6°F10.3°C 55% 7.8 mph S12.6 kmh S 23.6 mph38.0 kmh 30.04 in1017.3 mb 0.00 in0.0 mm 0.00 in0.0 mm 0.06 in1.5 mm
01:00 PM 66.9°F19.4°C 50.7°F10.4°C 56% 5.2 mph S8.4 kmh S 11.8 mph19.0 kmh 30.04 in1017.3 mb 0.00 in0.0 mm 0.00 in0.0 mm 0.06 in1.5 mm
01:15 PM 67.1°F19.5°C 50.4°F10.2°C 55% 6.7 mph S10.8 kmh S 16.1 mph25.9 kmh 30.04 in1017.3 mb 0.00 in0.0 mm 0.00 in0.0 mm 0.06 in1.5 mm
01:30 PM 67.3°F19.6°C 51.5°F10.8°C 57% 4.9 mph SSW7.9 kmh SSW 12.5 mph20.1 kmh 30.04 in1017.3 mb 0.00 in0.0 mm 0.00 in0.0 mm 0.06 in1.5 mm
01:45 PM 67.8°F19.9°C 53.0°F11.7°C 59% 5.0 mph S8.0 kmh S 10.4 mph16.7 kmh 30.04 in1017.3 mb 0.00 in0.0 mm 0.00 in0.0 mm 0.06 in1.5 mm
02:00 PM 67.8°F19.9°C 52.5°F11.4°C 58% 6.5 mph SW10.5 kmh SW 16.1 mph25.9 kmh 30.04 in1017.3 mb 0.00 in0.0 mm 0.00 in0.0 mm 0.06 in1.5 mm
02:15 PM 67.6°F19.8°C 52.3°F11.3°C 58% 4.9 mph S7.9 kmh S 9.3 mph15.0 kmh 30.04 in1017.3 mb 0.00 in0.0 mm 0.00 in0.0 mm 0.06 in1.5 mm
02:30 PM 67.6°F19.8°C 51.9°F11.1°C 57% 5.9 mph S9.5 kmh S 14.0 mph22.5 kmh 30.04 in1017.3 mb 0.00 in0.0 mm 0.00 in0.0 mm 0.06 in1.5 mm
02:45 PM 67.1°F19.5°C 52.3°F11.3°C 59% 4.5 mph S7.2 kmh S 8.9 mph14.3 kmh 30.04 in1017.3 mb 0.00 in0.0 mm 0.00 in0.0 mm 0.06 in1.5 mm
03:00 PM 67.1°F19.5°C 52.3°F11.3°C 59% 4.8 mph S7.7 kmh S 10.7 mph17.2 kmh 30.04 in1017.3 mb 0.00 in0.0 mm 0.00 in0.0 mm 0.06 in1.5 mm
03:15 PM 67.1°F19.5°C 53.2°F11.8°C 61% 5.6 mph SSW9.0 kmh SSW 12.2 mph19.6 kmh 30.01 in1016.3 mb 0.00 in0.0 mm 0.00 in0.0 mm 0.06 in1.5 mm
03:30 PM 66.7°F19.3°C 53.3°F11.8°C 62% 3.7 mph S6.0 kmh S 10.4 mph16.7 kmh 30.04 in1017.3 mb 0.00 in0.0 mm 0.00 in0.0 mm 0.06 in1.5 mm
03:45 PM 66.2°F19.0°C 52.8°F11.6°C 62% 4.0 mph S6.4 kmh S 14.0 mph22.5 kmh 30.01 in1016.3 mb 0.00 in0.0 mm 0.00 in0.0 mm 0.06 in1.5 mm
04:00 PM 65.7°F18.7°C 52.7°F11.5°C 63% 4.7 mph S7.6 kmh S 10.4 mph16.7 kmh 30.01 in1016.3 mb 0.00 in0.0 mm 0.00 in0.0 mm 0.06 in1.5 mm
04:15 PM 65.1°F18.4°C 52.6°F11.4°C 64% 3.5 mph S5.6 kmh S 9.7 mph15.6 kmh 30.04 in1017.3 mb 0.00 in0.0 mm 0.00 in0.0 mm 0.06 in1.5 mm
04:30 PM 64.6°F18.1°C 53.8°F12.1°C 68% 6.0 mph S9.7 kmh S 15.0 mph24.1 kmh 30.01 in1016.3 mb 0.00 in0.0 mm 0.00 in0.0 mm 0.06 in1.5 mm
04:45 PM 63.5°F17.5°C 54.7°F12.6°C 73% 4.9 mph SW7.9 kmh SW 10.0 mph16.1 kmh 30.01 in1016.3 mb 0.00 in0.0 mm 0.00 in0.0 mm 0.06 in1.5 mm
05:00 PM 62.6°F17.0°C 54.2°F12.3°C 74% 4.1 mph S6.6 kmh S 8.6 mph13.8 kmh 30.01 in1016.3 mb 0.00 in0.0 mm 0.00 in0.0 mm 0.06 in1.5 mm
05:15 PM 62.4°F16.9°C 55.1°F12.8°C 77% 2.6 mph S4.2 kmh S 8.9 mph14.3 kmh 30.01 in1016.3 mb 0.00 in0.0 mm 0.00 in0.0 mm 0.06 in1.5 mm
05:30 PM 62.4°F16.9°C 55.1°F12.8°C 77% 2.9 mph SE4.7 kmh SE 7.9 mph12.7 kmh 30.04 in1017.3 mb 0.00 in0.0 mm 0.00 in0.0 mm 0.06 in1.5 mm
05:45 PM 62.1°F16.7°C 55.1°F12.8°C 78% 1.7 mph SE2.7 kmh SE 5.4 mph8.7 kmh 30.01 in1016.3 mb 0.00 in0.0 mm 0.00 in0.0 mm 0.06 in1.5 mm
06:00 PM 61.9°F16.6°C 54.9°F12.7°C 78% 1.1 mph SE1.8 kmh SE 6.4 mph10.3 kmh 30.04 in1017.3 mb 0.00 in0.0 mm 0.00 in0.0 mm 0.06 in1.5 mm
06:15 PM 61.7°F16.5°C 55.1°F12.8°C 79% 0.9 mph SE1.4 kmh SE 8.6 mph13.8 kmh 30.04 in1017.3 mb 0.00 in0.0 mm 0.00 in0.0 mm 0.06 in1.5 mm
06:30 PM 61.2°F16.2°C 54.6°F12.6°C 79% 1.2 mph SE1.9 kmh SE 5.4 mph8.7 kmh 30.04 in1017.3 mb 0.00 in0.0 mm 0.00 in0.0 mm 0.06 in1.5 mm
06:45 PM 61.0°F16.1°C 54.8°F12.7°C 80% 2.0 mph SE3.2 kmh SE 8.9 mph14.3 kmh 30.04 in1017.3 mb 0.00 in0.0 mm 0.00 in0.0 mm 0.06 in1.5 mm
07:00 PM 60.8°F16.0°C 54.6°F12.6°C 80% 1.9 mph SSE3.1 kmh SSE 6.4 mph10.3 kmh 30.04 in1017.3 mb 0.00 in0.0 mm 0.00 in0.0 mm 0.06 in1.5 mm
07:15 PM 60.8°F16.0°C 54.9°F12.7°C 81% 2.3 mph SSE3.7 kmh SSE 6.8 mph10.9 kmh 30.04 in1017.3 mb 0.00 in0.0 mm 0.00 in0.0 mm 0.06 in1.5 mm
07:30 PM 61.0°F16.1°C 55.1°F12.8°C 81% 3.2 mph SE5.1 kmh SE 8.6 mph13.8 kmh 30.04 in1017.3 mb 0.00 in0.0 mm 0.00 in0.0 mm 0.06 in1.5 mm
07:45 PM 60.8°F16.0°C 54.9°F12.7°C 81% 2.9 mph SE4.7 kmh SE 8.6 mph13.8 kmh 30.04 in1017.3 mb 0.00 in0.0 mm 0.00 in0.0 mm 0.06 in1.5 mm
08:00 PM 60.4°F15.8°C 54.6°F12.6°C 81% 3.4 mph SSE5.5 kmh SSE 8.9 mph14.3 kmh 30.04 in1017.3 mb 0.00 in0.0 mm 0.00 in0.0 mm 0.06 in1.5 mm
08:15 PM 60.3°F15.7°C 54.7°F12.6°C 82% 3.8 mph SE6.1 kmh SE 8.6 mph13.8 kmh 30.04 in1017.3 mb 0.00 in0.0 mm 0.00 in0.0 mm 0.06 in1.5 mm
08:30 PM 59.7°F15.4°C 54.2°F12.3°C 82% 3.5 mph SE5.6 kmh SE 12.2 mph19.6 kmh 30.04 in1017.3 mb 0.00 in0.0 mm 0.00 in0.0 mm 0.06 in1.5 mm
08:45 PM 59.5°F15.3°C 54.0°F12.2°C 82% 2.9 mph SSE4.7 kmh SSE 9.7 mph15.6 kmh 30.04 in1017.3 mb 0.00 in0.0 mm 0.00 in0.0 mm 0.06 in1.5 mm
09:00 PM 59.4°F15.2°C 54.2°F12.3°C 83% 2.7 mph SE4.3 kmh SE 10.4 mph16.7 kmh 30.04 in1017.3 mb 0.00 in0.0 mm 0.00 in0.0 mm 0.06 in1.5 mm
09:15 PM 59.5°F15.3°C 54.4°F12.4°C 83% 4.1 mph SE6.6 kmh SE 7.9 mph12.7 kmh 30.04 in1017.3 mb 0.00 in0.0 mm 0.00 in0.0 mm 0.06 in1.5 mm
09:30 PM 59.5°F15.3°C 54.7°F12.6°C 84% 4.7 mph SE7.6 kmh SE 10.0 mph16.1 kmh 30.04 in1017.3 mb 0.00 in0.0 mm 0.00 in0.0 mm 0.06 in1.5 mm
09:45 PM 59.5°F15.3°C 54.7°F12.6°C 84% 4.5 mph SE7.2 kmh SE 8.9 mph14.3 kmh 30.04 in1017.3 mb 0.00 in0.0 mm 0.00 in0.0 mm 0.06 in1.5 mm
10:00 PM 59.5°F15.3°C 54.7°F12.6°C 84% 3.6 mph ESE5.8 kmh ESE 8.6 mph13.8 kmh 30.04 in1017.3 mb 0.00 in0.0 mm 0.00 in0.0 mm 0.06 in1.5 mm
10:15 PM 59.5°F15.3°C 54.7°F12.6°C 84% 2.7 mph SE4.3 kmh SE 8.6 mph13.8 kmh 30.04 in1017.3 mb 0.00 in0.0 mm 0.00 in0.0 mm 0.06 in1.5 mm
10:30 PM 59.5°F15.3°C 55.0°F12.8°C 85% 3.6 mph ESE5.8 kmh ESE 6.8 mph10.9 kmh 30.04 in1017.3 mb 0.00 in0.0 mm 0.00 in0.0 mm 0.06 in1.5 mm
10:45 PM 59.2°F15.1°C 54.7°F12.6°C 85% 4.2 mph ESE6.8 kmh ESE 10.0 mph16.1 kmh 30.04 in1017.3 mb 0.00 in0.0 mm 0.00 in0.0 mm 0.06 in1.5 mm
11:00 PM 59.0°F15.0°C 54.5°F12.5°C 85% 3.5 mph SE5.6 kmh SE 8.6 mph13.8 kmh 30.01 in1016.3 mb 0.00 in0.0 mm 0.00 in0.0 mm 0.06 in1.5 mm
11:15 PM 59.0°F15.0°C 54.5°F12.5°C 85% 5.4 mph SE8.7 kmh SE 9.7 mph15.6 kmh 30.01 in1016.3 mb 0.00 in0.0 mm 0.00 in0.0 mm 0.06 in1.5 mm
11:30 PM 59.0°F15.0°C 54.5°F12.5°C 85% 4.4 mph SE7.1 kmh SE 9.3 mph15.0 kmh 30.01 in1016.3 mb 0.00 in0.0 mm 0.00 in0.0 mm 0.06 in1.5 mm
11:45 PM 59.2°F15.1°C 55.0°F12.8°C 86% 3.4 mph SE5.5 kmh SE 11.5 mph18.5 kmh 30.07 in1018.3 mb 0.00 in0.0 mm 0.00 in0.0 mm 0.06 in1.5 mm